createdAt,value
2018-10-16T00:00:05.839Z,8.6
2018-10-16T00:00:18.303Z,8.6
2018-10-16T00:00:30.728Z,8.6
2018-10-16T00:00:43.132Z,8.6
2018-10-16T00:00:55.584Z,8.6
2018-10-16T00:01:07.999Z,8.6
2018-10-16T00:01:20.403Z,8.6
2018-10-16T00:01:32.862Z,8.6
2018-10-16T00:01:45.285Z,8.6
2018-10-16T00:01:57.707Z,8.6
2018-10-16T00:02:10.128Z,8.6
2018-10-16T00:02:22.521Z,8.6
2018-10-16T00:02:34.927Z,8.6
2018-10-16T00:02:47.330Z,8.6
2018-10-16T00:03:00.143Z,8.6
2018-10-16T00:03:14.136Z,8.6
2018-10-16T00:03:27.144Z,8.6
2018-10-16T00:03:39.614Z,8.6
2018-10-16T00:03:52.002Z,8.6
2018-10-16T00:04:04.453Z,8.6
2018-10-16T00:04:16.844Z,8.6
2018-10-16T00:04:29.223Z,8.6
2018-10-16T00:04:41.659Z,8.65
2018-10-16T00:04:54.069Z,8.65
2018-10-16T00:05:06.459Z,8.65
2018-10-16T00:05:18.883Z,8.65
2018-10-16T00:05:31.334Z,8.65
2018-10-16T00:05:43.723Z,8.65
2018-10-16T00:05:56.124Z,8.65
2018-10-16T00:06:08.541Z,8.65
2018-10-16T00:06:21.274Z,8.65
2018-10-16T00:06:33.829Z,8.65
2018-10-16T00:06:46.236Z,8.65
2018-10-16T00:06:58.642Z,8.65
2018-10-16T00:07:11.047Z,8.65
2018-10-16T00:07:23.471Z,8.65
2018-10-16T00:07:35.870Z,8.65
2018-10-16T00:07:48.288Z,8.65
2018-10-16T00:08:00.668Z,8.65
2018-10-16T00:08:13.082Z,8.65
2018-10-16T00:08:25.476Z,8.65
2018-10-16T00:08:37.851Z,8.65
2018-10-16T00:08:50.309Z,8.65
2018-10-16T00:09:02.854Z,8.65
2018-10-16T00:09:15.234Z,8.65
2018-10-16T00:09:27.615Z,8.65
2018-10-16T00:09:40.008Z,8.65
2018-10-16T00:09:52.397Z,8.65
2018-10-16T00:10:04.959Z,8.65
2018-10-16T00:10:17.338Z,8.65
2018-10-16T00:10:29.722Z,8.65
2018-10-16T00:10:42.129Z,8.65
2018-10-16T00:10:54.520Z,8.65
2018-10-16T00:11:07.069Z,8.65
2018-10-16T00:11:19.485Z,8.65
2018-10-16T00:11:31.875Z,8.65
2018-10-16T00:11:44.393Z,8.65
2018-10-16T00:11:56.791Z,8.65
2018-10-16T00:12:09.198Z,8.65
2018-10-16T00:12:21.592Z,8.65
2018-10-16T00:12:34.150Z,8.65
2018-10-16T00:12:46.684Z,8.65
2018-10-16T00:12:59.072Z,8.65
2018-10-16T00:13:11.469Z,8.65
2018-10-16T00:13:23.894Z,8.65
2018-10-16T00:13:36.287Z,8.65
2018-10-16T00:13:48.684Z,8.65
2018-10-16T00:14:01.080Z,8.65
2018-10-16T00:14:13.471Z,8.65
2018-10-16T00:14:25.847Z,8.65
2018-10-16T00:14:38.262Z,7.27
2018-10-16T00:14:50.665Z,7.27
2018-10-16T00:15:03.056Z,7.27
2018-10-16T00:15:15.494Z,7.27
2018-10-16T00:15:27.910Z,7.27
2018-10-16T00:15:40.320Z,7.27
2018-10-16T00:15:52.772Z,7.27
2018-10-16T00:16:05.272Z,7.27
2018-10-16T00:16:17.796Z,7.27
2018-10-16T00:16:30.189Z,7.27
2018-10-16T00:16:42.587Z,7.27
2018-10-16T00:16:54.972Z,7.27
2018-10-16T00:17:07.359Z,7.27
2018-10-16T00:17:19.817Z,7.27
2018-10-16T00:17:32.367Z,7.27
2018-10-16T00:17:44.789Z,7.27
2018-10-16T00:17:57.187Z,7.27
2018-10-16T00:18:09.718Z,7.27
2018-10-16T00:18:22.124Z,7.27
2018-10-16T00:18:34.516Z,7.27
2018-10-16T00:18:46.973Z,7.27
2018-10-16T00:18:59.418Z,7.27
2018-10-16T00:19:11.811Z,7.27
2018-10-16T00:19:24.245Z,7.27
2018-10-16T00:19:36.634Z,7.27
2018-10-16T00:19:49.034Z,7.27
2018-10-16T00:20:01.421Z,7.27
2018-10-16T00:20:13.837Z,7.27
2018-10-16T00:20:26.239Z,7.27
2018-10-16T00:20:38.674Z,7.27
2018-10-16T00:20:51.073Z,7.27
2018-10-16T00:21:03.471Z,7.27
2018-10-16T00:21:15.876Z,7.27
2018-10-16T00:21:28.292Z,7.27
2018-10-16T00:21:40.682Z,7.27
2018-10-16T00:21:53.082Z,7.27
2018-10-16T00:22:05.556Z,7.27
2018-10-16T00:22:18.041Z,7.27
2018-10-16T00:22:30.442Z,7.27
2018-10-16T00:22:42.844Z,7.27
2018-10-16T00:22:55.256Z,7.27
2018-10-16T00:23:07.683Z,7.27
2018-10-16T00:23:20.062Z,7.27
2018-10-16T00:23:32.461Z,7.27
2018-10-16T00:23:44.859Z,7.27
2018-10-16T00:23:57.253Z,7.27
2018-10-16T00:24:09.651Z,7.27
2018-10-16T00:24:22.180Z,7.27
2018-10-16T00:24:34.589Z,7.88
2018-10-16T00:24:46.977Z,7.88
2018-10-16T00:24:59.592Z,7.88
2018-10-16T00:25:12.146Z,7.88
2018-10-16T00:25:24.546Z,7.88
2018-10-16T00:25:36.970Z,7.88
2018-10-16T00:25:49.420Z,7.88
2018-10-16T00:26:01.816Z,7.88
2018-10-16T00:26:14.248Z,7.88
2018-10-16T00:26:26.631Z,7.88
2018-10-16T00:26:39.030Z,7.88
2018-10-16T00:26:51.427Z,7.88
2018-10-16T00:27:03.882Z,7.88
2018-10-16T00:27:16.282Z,7.88
2018-10-16T00:27:28.691Z,7.88
2018-10-16T00:27:41.079Z,7.88
2018-10-16T00:27:53.494Z,7.88
2018-10-16T00:28:05.908Z,7.88
2018-10-16T00:28:18.305Z,7.88
2018-10-16T00:28:30.684Z,7.88
2018-10-16T00:28:43.071Z,7.88
2018-10-16T00:28:55.468Z,7.88
2018-10-16T00:29:07.857Z,7.88
2018-10-16T00:29:20.314Z,7.88
2018-10-16T00:29:32.715Z,7.88
2018-10-16T00:29:45.122Z,7.88
2018-10-16T00:29:57.516Z,7.88
2018-10-16T00:30:09.951Z,7.88
2018-10-16T00:30:22.382Z,7.88
2018-10-16T00:30:34.782Z,7.88
2018-10-16T00:30:47.184Z,7.88
2018-10-16T00:30:59.591Z,7.88
2018-10-16T00:31:12.252Z,7.88
2018-10-16T00:31:24.667Z,7.88
2018-10-16T00:31:37.052Z,7.88
2018-10-16T00:31:49.435Z,7.88
2018-10-16T00:32:01.851Z,7.88
2018-10-16T00:32:14.251Z,7.88
2018-10-16T00:32:26.747Z,7.88
2018-10-16T00:32:40.186Z,7.88
2018-10-16T00:32:53.690Z,7.88
2018-10-16T00:33:06.094Z,7.88
2018-10-16T00:33:18.505Z,7.88
2018-10-16T00:33:30.922Z,7.88
2018-10-16T00:33:43.322Z,7.88
2018-10-16T00:33:55.742Z,7.88
2018-10-16T00:34:08.144Z,7.88
2018-10-16T00:34:20.543Z,7.88
2018-10-16T00:34:32.978Z,7.88
2018-10-16T00:34:45.393Z,7.88
2018-10-16T00:34:57.869Z,7.88
2018-10-16T00:35:10.285Z,7.88
2018-10-16T00:35:22.676Z,7.88
2018-10-16T00:35:35.094Z,7.88
2018-10-16T00:35:47.508Z,7.88
2018-10-16T00:35:59.911Z,7.88
2018-10-16T00:36:12.781Z,7.88
2018-10-16T00:36:25.323Z,7.88
2018-10-16T00:36:37.730Z,7.88
2018-10-16T00:36:50.109Z,7.88
2018-10-16T00:37:02.516Z,7.88
2018-10-16T00:37:14.923Z,7.88
2018-10-16T00:37:27.322Z,7.88
2018-10-16T00:37:39.740Z,7.88
2018-10-16T00:37:52.268Z,7.88
2018-10-16T00:38:04.667Z,7.88
2018-10-16T00:38:17.078Z,7.88
2018-10-16T00:38:29.503Z,7.88
2018-10-16T00:38:41.904Z,7.88
2018-10-16T00:38:54.343Z,7.88
2018-10-16T00:39:06.753Z,7.88
2018-10-16T00:39:19.205Z,7.88
2018-10-16T00:39:31.589Z,7.88
2018-10-16T00:39:44.122Z,7.88
2018-10-16T00:39:56.613Z,7.88
2018-10-16T00:40:09.024Z,7.88
2018-10-16T00:40:21.461Z,7.88
2018-10-16T00:40:33.887Z,7.88
2018-10-16T00:40:46.403Z,7.88
2018-10-16T00:40:58.799Z,7.88
2018-10-16T00:41:11.193Z,7.88
2018-10-16T00:41:23.586Z,7.88
2018-10-16T00:41:35.987Z,7.88
2018-10-16T00:41:48.402Z,7.88
2018-10-16T00:42:00.828Z,7.88
2018-10-16T00:42:13.244Z,7.88
2018-10-16T00:42:25.625Z,7.88
2018-10-16T00:42:38.027Z,7.88
2018-10-16T00:42:50.463Z,7.88
2018-10-16T00:43:02.893Z,7.88
2018-10-16T00:43:15.281Z,7.88
2018-10-16T00:43:27.677Z,7.88
2018-10-16T00:43:40.071Z,7.88
2018-10-16T00:43:52.476Z,7.88
2018-10-16T00:44:04.877Z,7.88
2018-10-16T00:44:17.407Z,7.88
2018-10-16T00:44:29.830Z,7.88
2018-10-16T00:44:42.219Z,8.6
2018-10-16T00:44:54.610Z,8.6
2018-10-16T00:45:07.089Z,8.6
2018-10-16T00:45:19.487Z,8.6
2018-10-16T00:45:31.898Z,8.6
2018-10-16T00:45:44.289Z,8.6
2018-10-16T00:45:56.709Z,8.6
2018-10-16T00:46:09.101Z,8.6
2018-10-16T00:46:21.620Z,8.6
2018-10-16T00:46:34.019Z,8.6
2018-10-16T00:46:46.454Z,8.6
2018-10-16T00:46:58.841Z,8.6
2018-10-16T00:47:11.228Z,8.6
2018-10-16T00:47:23.621Z,8.6
2018-10-16T00:47:36.016Z,8.6
2018-10-16T00:47:48.399Z,8.6
2018-10-16T00:48:00.794Z,8.6
2018-10-16T00:48:13.257Z,8.6
2018-10-16T00:48:25.721Z,8.6
2018-10-16T00:48:38.247Z,8.6
2018-10-16T00:48:50.644Z,8.6
2018-10-16T00:49:03.077Z,8.6
2018-10-16T00:49:15.464Z,8.6
2018-10-16T00:49:27.848Z,8.6
2018-10-16T00:49:40.391Z,8.6
2018-10-16T00:49:52.829Z,8.6
2018-10-16T00:50:05.235Z,8.6
2018-10-16T00:50:17.616Z,8.6
2018-10-16T00:50:30.034Z,8.6
2018-10-16T00:50:42.457Z,8.6
2018-10-16T00:50:54.854Z,8.6
2018-10-16T00:51:07.301Z,8.6
2018-10-16T00:51:19.719Z,8.6
2018-10-16T00:51:32.145Z,8.6
2018-10-16T00:51:44.566Z,8.6
2018-10-16T00:51:56.954Z,8.6
2018-10-16T00:52:09.361Z,8.6
2018-10-16T00:52:21.777Z,8.6
2018-10-16T00:52:34.264Z,8.6
2018-10-16T00:52:46.684Z,8.6
2018-10-16T00:52:59.204Z,8.6
2018-10-16T00:53:11.598Z,8.6
2018-10-16T00:53:23.985Z,8.6
2018-10-16T00:53:36.382Z,8.6
2018-10-16T00:53:48.781Z,8.6
2018-10-16T00:54:01.164Z,8.6
2018-10-16T00:54:13.560Z,8.6
2018-10-16T00:54:25.946Z,8.6
2018-10-16T00:54:38.331Z,7.1
2018-10-16T00:54:51.064Z,7.1
2018-10-16T00:55:04.940Z,7.1
2018-10-16T00:55:17.536Z,7.1
2018-10-16T00:55:29.940Z,7.1
2018-10-16T00:55:42.347Z,7.1
2018-10-16T00:55:54.757Z,7.1
2018-10-16T00:56:07.154Z,7.1
2018-10-16T00:56:19.549Z,7.1
2018-10-16T00:56:31.956Z,7.1
2018-10-16T00:56:44.354Z,7.1
2018-10-16T00:56:56.753Z,7.1
2018-10-16T00:57:09.194Z,7.1
2018-10-16T00:57:21.734Z,7.1
2018-10-16T00:57:34.143Z,7.1
2018-10-16T00:57:46.534Z,7.1
2018-10-16T00:57:58.941Z,7.1
2018-10-16T00:58:11.354Z,7.1
2018-10-16T00:58:23.750Z,7.1
2018-10-16T00:58:36.166Z,7.1
2018-10-16T00:58:48.553Z,7.1
2018-10-16T00:59:00.951Z,7.1
2018-10-16T00:59:13.350Z,7.1
2018-10-16T00:59:25.767Z,7.1
2018-10-16T00:59:38.167Z,7.1
2018-10-16T00:59:50.579Z,7.1
2018-10-16T01:00:03.023Z,7.1
2018-10-16T01:00:15.446Z,7.1
2018-10-16T01:00:27.875Z,7.1
2018-10-16T01:00:40.292Z,7.1
2018-10-16T01:00:52.724Z,7.1
2018-10-16T01:01:05.160Z,7.1
2018-10-16T01:01:17.702Z,7.1
2018-10-16T01:01:30.115Z,7.1
2018-10-16T01:01:42.502Z,7.1
2018-10-16T01:01:54.907Z,7.1
2018-10-16T01:02:07.305Z,7.1
2018-10-16T01:02:19.715Z,7.1
2018-10-16T01:02:32.132Z,7.1
2018-10-16T01:02:44.535Z,7.1
2018-10-16T01:02:56.965Z,7.1
2018-10-16T01:03:09.391Z,7.1
2018-10-16T01:03:21.779Z,7.1
2018-10-16T01:03:34.194Z,7.1
2018-10-16T01:03:46.604Z,7.1
2018-10-16T01:03:59.000Z,7.1
2018-10-16T01:04:11.491Z,7.1
2018-10-16T01:04:23.890Z,7.1
2018-10-16T01:04:36.279Z,7.81
2018-10-16T01:04:48.693Z,7.81
2018-10-16T01:05:01.122Z,7.81
2018-10-16T01:05:13.580Z,7.81
2018-10-16T01:05:26.087Z,7.81
2018-10-16T01:05:38.508Z,7.81
2018-10-16T01:05:50.918Z,7.81
2018-10-16T01:06:03.303Z,7.81
2018-10-16T01:06:15.716Z,7.81
2018-10-16T01:06:28.210Z,7.81
2018-10-16T01:06:40.725Z,7.81
2018-10-16T01:06:53.152Z,7.81
2018-10-16T01:07:05.543Z,7.81
2018-10-16T01:07:17.944Z,7.81
2018-10-16T01:07:30.362Z,7.81
2018-10-16T01:07:42.773Z,7.81
2018-10-16T01:07:55.218Z,7.81
2018-10-16T01:08:07.665Z,7.81
2018-10-16T01:08:20.153Z,7.81
2018-10-16T01:08:32.562Z,7.81
2018-10-16T01:08:45.060Z,7.81
2018-10-16T01:08:57.581Z,7.81
2018-10-16T01:09:09.994Z,7.81
2018-10-16T01:09:22.402Z,7.81
2018-10-16T01:09:34.807Z,7.81
2018-10-16T01:09:47.206Z,7.81
2018-10-16T01:09:59.590Z,7.81
2018-10-16T01:10:12.112Z,7.81
2018-10-16T01:10:24.646Z,7.81
2018-10-16T01:10:37.037Z,7.81
2018-10-16T01:10:49.444Z,7.81
2018-10-16T01:11:01.828Z,7.81
2018-10-16T01:11:14.348Z,7.81
2018-10-16T01:11:26.773Z,7.81
2018-10-16T01:11:39.319Z,7.81
2018-10-16T01:11:51.719Z,7.81
2018-10-16T01:12:04.131Z,7.81
2018-10-16T01:12:16.560Z,7.81
2018-10-16T01:12:28.950Z,7.81
2018-10-16T01:12:41.422Z,7.81
2018-10-16T01:12:53.905Z,7.81
2018-10-16T01:13:06.314Z,7.81
2018-10-16T01:13:19.275Z,7.81
2018-10-16T01:13:31.688Z,7.81
2018-10-16T01:13:44.071Z,7.81
2018-10-16T01:13:56.495Z,7.81
2018-10-16T01:14:08.902Z,7.81
2018-10-16T01:14:21.297Z,7.81
2018-10-16T01:14:33.695Z,7.81
2018-10-16T01:14:46.099Z,7.12
2018-10-16T01:14:58.500Z,7.12
2018-10-16T01:15:10.921Z,7.12
2018-10-16T01:15:23.324Z,7.12
2018-10-16T01:15:35.744Z,7.12
2018-10-16T01:15:48.156Z,7.12
2018-10-16T01:16:00.585Z,7.12
2018-10-16T01:16:13.129Z,7.12
2018-10-16T01:16:25.533Z,7.12
2018-10-16T01:16:37.941Z,7.12
2018-10-16T01:16:50.325Z,7.12
2018-10-16T01:17:02.829Z,7.12
2018-10-16T01:17:15.251Z,7.12
2018-10-16T01:17:28.230Z,7.12
2018-10-16T01:17:40.838Z,7.12
2018-10-16T01:17:53.259Z,7.12
2018-10-16T01:18:05.821Z,7.12
2018-10-16T01:18:18.257Z,7.12
2018-10-16T01:18:30.677Z,7.12
2018-10-16T01:18:43.144Z,7.12
2018-10-16T01:18:55.557Z,7.12
2018-10-16T01:19:07.975Z,7.12
2018-10-16T01:19:20.383Z,7.12
2018-10-16T01:19:32.929Z,7.12
2018-10-16T01:19:45.342Z,7.12
2018-10-16T01:19:57.738Z,7.12
2018-10-16T01:20:10.149Z,7.12
2018-10-16T01:20:22.584Z,7.12
2018-10-16T01:20:34.974Z,7.12
2018-10-16T01:20:47.384Z,7.12
2018-10-16T01:20:59.778Z,7.12
2018-10-16T01:21:12.182Z,7.12
2018-10-16T01:21:24.588Z,7.12
2018-10-16T01:21:36.986Z,7.12
2018-10-16T01:21:49.384Z,7.12
2018-10-16T01:22:01.774Z,7.12
2018-10-16T01:22:14.364Z,7.12
2018-10-16T01:22:26.824Z,7.12
2018-10-16T01:22:39.214Z,7.12
2018-10-16T01:22:51.623Z,7.12
2018-10-16T01:23:04.037Z,7.12
2018-10-16T01:23:16.462Z,7.12
2018-10-16T01:23:28.859Z,7.12
2018-10-16T01:23:41.261Z,7.12
2018-10-16T01:23:53.643Z,7.12
2018-10-16T01:24:06.054Z,7.12
2018-10-16T01:24:18.458Z,7.12
2018-10-16T01:24:30.953Z,7.12
2018-10-16T01:24:43.370Z,7.46
2018-10-16T01:24:55.843Z,7.46
2018-10-16T01:25:08.307Z,7.46
2018-10-16T01:25:20.834Z,7.46
2018-10-16T01:25:33.375Z,7.46
2018-10-16T01:25:45.806Z,7.46
2018-10-16T01:25:58.280Z,7.46
2018-10-16T01:26:10.673Z,7.46
2018-10-16T01:26:23.100Z,7.46
2018-10-16T01:26:35.505Z,7.46
2018-10-16T01:26:47.923Z,7.46
2018-10-16T01:27:00.326Z,7.46
2018-10-16T01:27:12.737Z,7.46
2018-10-16T01:27:25.129Z,7.46
2018-10-16T01:27:37.526Z,7.46
2018-10-16T01:27:49.987Z,7.46
2018-10-16T01:28:02.424Z,7.46
2018-10-16T01:28:14.821Z,7.46
2018-10-16T01:28:27.226Z,7.46
2018-10-16T01:28:39.630Z,7.46
2018-10-16T01:28:52.081Z,7.46
2018-10-16T01:29:04.476Z,7.46
2018-10-16T01:29:16.883Z,7.46
2018-10-16T01:29:29.363Z,7.46
2018-10-16T01:29:41.767Z,7.46
2018-10-16T01:29:54.201Z,7.46
2018-10-16T01:30:06.608Z,7.46
2018-10-16T01:30:19.230Z,7.46
2018-10-16T01:30:31.657Z,7.46
2018-10-16T01:30:44.068Z,7.46
2018-10-16T01:30:56.471Z,7.46
2018-10-16T01:31:08.863Z,7.46
2018-10-16T01:31:21.259Z,7.46
2018-10-16T01:31:33.660Z,7.46
2018-10-16T01:31:46.174Z,7.46
2018-10-16T01:31:58.590Z,7.46
2018-10-16T01:32:11.032Z,7.46
2018-10-16T01:32:23.432Z,7.46
2018-10-16T01:32:35.829Z,7.46
2018-10-16T01:32:48.388Z,7.46
2018-10-16T01:33:00.817Z,7.46
2018-10-16T01:33:13.241Z,7.46
2018-10-16T01:33:25.651Z,7.46
2018-10-16T01:33:38.058Z,7.46
2018-10-16T01:33:50.466Z,7.46
2018-10-16T01:34:02.856Z,7.46
2018-10-16T01:34:15.262Z,7.46
2018-10-16T01:34:27.685Z,7.46
2018-10-16T01:34:40.098Z,7.87
2018-10-16T01:34:52.504Z,7.87
2018-10-16T01:35:04.904Z,7.87
2018-10-16T01:35:17.360Z,7.87
2018-10-16T01:35:29.765Z,7.87
2018-10-16T01:35:42.150Z,7.87
2018-10-16T01:35:54.558Z,7.87
2018-10-16T01:36:06.980Z,7.87
2018-10-16T01:36:19.485Z,7.87
2018-10-16T01:36:31.942Z,7.87
2018-10-16T01:36:44.480Z,7.87
2018-10-16T01:36:56.916Z,7.87
2018-10-16T01:37:09.320Z,7.87
2018-10-16T01:37:21.772Z,7.87
2018-10-16T01:37:34.157Z,7.87
2018-10-16T01:37:46.741Z,7.87
2018-10-16T01:37:59.128Z,7.87
2018-10-16T01:38:11.547Z,7.87
2018-10-16T01:38:23.969Z,7.87
2018-10-16T01:38:36.373Z,7.87
2018-10-16T01:38:48.769Z,7.87
2018-10-16T01:39:01.182Z,7.87
2018-10-16T01:39:13.588Z,7.87
2018-10-16T01:39:25.981Z,7.87
2018-10-16T01:39:38.488Z,7.87
2018-10-16T01:39:50.876Z,7.87
2018-10-16T01:40:03.291Z,7.87
2018-10-16T01:40:15.706Z,7.87
2018-10-16T01:40:28.083Z,7.87
2018-10-16T01:40:40.552Z,7.87
2018-10-16T01:40:52.946Z,7.87
2018-10-16T01:41:05.345Z,7.87
2018-10-16T01:41:17.744Z,7.87
2018-10-16T01:41:30.285Z,7.87
2018-10-16T01:41:42.675Z,7.87
2018-10-16T01:41:55.056Z,7.87
2018-10-16T01:42:07.469Z,7.87
2018-10-16T01:42:19.886Z,7.87
2018-10-16T01:42:32.276Z,7.87
2018-10-16T01:42:44.822Z,7.87
2018-10-16T01:42:57.283Z,7.87
2018-10-16T01:43:09.776Z,7.87
2018-10-16T01:43:22.248Z,7.87
2018-10-16T01:43:34.700Z,7.87
2018-10-16T01:43:47.177Z,7.87
2018-10-16T01:43:59.583Z,7.87
2018-10-16T01:44:11.978Z,7.87
2018-10-16T01:44:24.376Z,7.87
2018-10-16T01:44:36.778Z,7.87
2018-10-16T01:44:49.198Z,8.71
2018-10-16T01:45:01.612Z,8.71
2018-10-16T01:45:14.014Z,8.71
2018-10-16T01:45:26.427Z,8.71
2018-10-16T01:45:38.863Z,8.71
2018-10-16T01:45:51.332Z,8.71
2018-10-16T01:46:03.751Z,8.71
2018-10-16T01:46:16.161Z,8.71
2018-10-16T01:46:28.611Z,8.71
2018-10-16T01:46:41.007Z,8.71
2018-10-16T01:46:53.470Z,8.71
2018-10-16T01:47:05.879Z,8.71
2018-10-16T01:47:18.308Z,8.71
2018-10-16T01:47:30.707Z,8.71
2018-10-16T01:47:43.695Z,8.71
2018-10-16T01:47:56.098Z,8.71
2018-10-16T01:48:08.505Z,8.71
2018-10-16T01:48:20.909Z,8.71
2018-10-16T01:48:33.305Z,8.71
2018-10-16T01:48:45.695Z,8.71
2018-10-16T01:48:58.113Z,8.71
2018-10-16T01:49:10.531Z,8.71
2018-10-16T01:49:22.935Z,8.71
2018-10-16T01:49:35.458Z,8.71
2018-10-16T01:49:47.862Z,8.71
2018-10-16T01:50:00.248Z,8.71
2018-10-16T01:50:12.630Z,8.71
2018-10-16T01:50:25.026Z,8.71
2018-10-16T01:50:37.429Z,8.71
2018-10-16T01:50:49.843Z,8.71
2018-10-16T01:51:02.253Z,8.71
2018-10-16T01:51:14.654Z,8.71
2018-10-16T01:51:27.046Z,8.71
2018-10-16T01:51:39.448Z,8.71
2018-10-16T01:51:51.871Z,8.71
2018-10-16T01:52:04.289Z,8.71
2018-10-16T01:52:16.723Z,8.71
2018-10-16T01:52:29.122Z,8.71
2018-10-16T01:52:41.527Z,8.71
2018-10-16T01:52:53.926Z,8.71
2018-10-16T01:53:06.319Z,8.71
2018-10-16T01:53:18.726Z,8.71
2018-10-16T01:53:31.153Z,8.71
2018-10-16T01:53:43.555Z,8.71
2018-10-16T01:53:55.970Z,8.71
2018-10-16T01:54:08.368Z,8.71
2018-10-16T01:54:20.762Z,8.71
2018-10-16T01:54:33.203Z,8.71
2018-10-16T01:54:45.608Z,8.5
2018-10-16T01:54:58.023Z,8.5
2018-10-16T01:55:10.439Z,8.5
2018-10-16T01:55:22.851Z,8.5
2018-10-16T01:55:35.269Z,8.5
2018-10-16T01:55:47.664Z,8.5
2018-10-16T01:56:00.077Z,8.5
2018-10-16T01:56:12.488Z,8.5
2018-10-16T01:56:24.903Z,8.5
2018-10-16T01:56:37.290Z,8.5
2018-10-16T01:56:49.695Z,8.5
2018-10-16T01:57:02.067Z,8.5
2018-10-16T01:57:14.465Z,8.5
2018-10-16T01:57:27.064Z,8.5
2018-10-16T01:57:39.459Z,8.5
2018-10-16T01:57:51.855Z,8.5
2018-10-16T01:58:04.341Z,8.5
2018-10-16T01:58:16.759Z,8.5
2018-10-16T01:58:29.175Z,8.5
2018-10-16T01:58:41.562Z,8.5
2018-10-16T01:58:53.966Z,8.5
2018-10-16T01:59:06.378Z,8.5
2018-10-16T01:59:18.799Z,8.5
2018-10-16T01:59:31.183Z,8.5
2018-10-16T01:59:43.584Z,8.5
2018-10-16T01:59:56.007Z,8.5
2018-10-16T02:00:08.436Z,8.5
2018-10-16T02:00:20.912Z,8.5
2018-10-16T02:00:33.441Z,8.5
2018-10-16T02:00:45.871Z,8.5
2018-10-16T02:00:58.313Z,8.5
2018-10-16T02:01:10.775Z,8.5
2018-10-16T02:01:23.196Z,8.5
2018-10-16T02:01:35.636Z,8.5
2018-10-16T02:01:48.058Z,8.5
2018-10-16T02:02:00.492Z,8.5
2018-10-16T02:02:12.894Z,8.5
2018-10-16T02:02:25.570Z,8.5
2018-10-16T02:02:38.780Z,8.5
2018-10-16T02:02:52.244Z,8.5
2018-10-16T02:03:04.665Z,8.5
2018-10-16T02:03:17.088Z,8.5
2018-10-16T02:03:29.527Z,8.5
2018-10-16T02:03:41.951Z,8.5
2018-10-16T02:03:54.360Z,8.5
2018-10-16T02:04:06.928Z,8.5
2018-10-16T02:04:19.344Z,8.5
2018-10-16T02:04:31.739Z,8.5
2018-10-16T02:04:44.150Z,7.9
2018-10-16T02:04:56.569Z,7.9
2018-10-16T02:05:08.975Z,7.9
2018-10-16T02:05:21.600Z,7.9
2018-10-16T02:05:34.027Z,7.9
2018-10-16T02:05:46.429Z,7.9
2018-10-16T02:05:58.840Z,7.9
2018-10-16T02:06:11.267Z,7.9
2018-10-16T02:06:23.672Z,7.9
2018-10-16T02:06:36.126Z,7.9
2018-10-16T02:06:48.783Z,7.9
2018-10-16T02:07:01.192Z,7.9
2018-10-16T02:07:13.607Z,7.9
2018-10-16T02:07:26.049Z,7.9
2018-10-16T02:07:38.456Z,7.9
2018-10-16T02:07:50.868Z,7.9
2018-10-16T02:08:03.426Z,7.9
2018-10-16T02:08:15.845Z,7.9
2018-10-16T02:08:28.248Z,7.9
2018-10-16T02:08:40.852Z,7.9
2018-10-16T02:08:53.415Z,7.9
2018-10-16T02:09:05.833Z,7.9
2018-10-16T02:09:18.236Z,7.9
2018-10-16T02:09:30.617Z,7.9
2018-10-16T02:09:42.997Z,7.9
2018-10-16T02:09:55.422Z,7.9
2018-10-16T02:10:08.007Z,7.9
2018-10-16T02:10:20.427Z,7.9
2018-10-16T02:10:32.819Z,7.9
2018-10-16T02:10:45.215Z,7.9
2018-10-16T02:10:57.777Z,7.9
2018-10-16T02:11:10.291Z,7.9
2018-10-16T02:11:22.685Z,7.9
2018-10-16T02:11:35.162Z,7.9
2018-10-16T02:11:47.638Z,7.9
2018-10-16T02:12:00.037Z,7.9
2018-10-16T02:12:12.484Z,7.9
2018-10-16T02:12:24.895Z,7.9
2018-10-16T02:12:37.550Z,7.9
2018-10-16T02:12:49.946Z,7.9
2018-10-16T02:13:02.357Z,7.9
2018-10-16T02:13:14.767Z,7.9
2018-10-16T02:13:27.176Z,7.9
2018-10-16T02:13:39.590Z,7.9
2018-10-16T02:13:51.983Z,7.9
2018-10-16T02:14:04.391Z,7.9
2018-10-16T02:14:16.784Z,7.9
2018-10-16T02:14:29.176Z,7.9
2018-10-16T02:14:42.058Z,7.54
2018-10-16T02:14:55.897Z,7.54
2018-10-16T02:15:08.537Z,7.54
2018-10-16T02:15:20.935Z,7.54
2018-10-16T02:15:33.342Z,7.54
2018-10-16T02:15:45.749Z,7.54
2018-10-16T02:15:58.142Z,7.54
2018-10-16T02:16:10.684Z,7.54
2018-10-16T02:16:23.090Z,7.54
2018-10-16T02:16:35.518Z,7.54
2018-10-16T02:16:47.927Z,7.54
2018-10-16T02:17:00.337Z,7.54
2018-10-16T02:17:12.785Z,7.54
2018-10-16T02:17:25.237Z,7.54
2018-10-16T02:17:37.760Z,7.54
2018-10-16T02:17:50.274Z,7.54
2018-10-16T02:18:02.663Z,7.54
2018-10-16T02:18:15.203Z,7.54
2018-10-16T02:18:27.651Z,7.54
2018-10-16T02:18:40.053Z,7.54
2018-10-16T02:18:52.472Z,7.54
2018-10-16T02:19:04.899Z,7.54
2018-10-16T02:19:17.330Z,7.54
2018-10-16T02:19:29.743Z,7.54
2018-10-16T02:19:42.149Z,7.54
2018-10-16T02:19:54.568Z,7.54
2018-10-16T02:20:06.969Z,7.54
2018-10-16T02:20:19.451Z,7.54
2018-10-16T02:20:31.850Z,7.54
2018-10-16T02:20:44.251Z,7.54
2018-10-16T02:20:56.654Z,7.54
2018-10-16T02:21:09.072Z,7.54
2018-10-16T02:21:21.483Z,7.54
2018-10-16T02:21:33.903Z,7.54
2018-10-16T02:21:46.317Z,7.54
2018-10-16T02:21:58.731Z,7.54
2018-10-16T02:22:11.285Z,7.54
2018-10-16T02:22:23.691Z,7.54
2018-10-16T02:22:36.170Z,7.54
2018-10-16T02:22:48.559Z,7.54
2018-10-16T02:23:00.970Z,7.54
2018-10-16T02:23:13.365Z,7.54
2018-10-16T02:23:25.803Z,7.54
2018-10-16T02:23:38.208Z,7.54
2018-10-16T02:23:50.599Z,7.54
2018-10-16T02:24:02.995Z,7.54
2018-10-16T02:24:15.437Z,7.54
2018-10-16T02:24:28.015Z,7.54
2018-10-16T02:24:40.416Z,7.38
2018-10-16T02:24:52.956Z,7.38
2018-10-16T02:25:05.376Z,7.38
2018-10-16T02:25:17.937Z,7.38
2018-10-16T02:25:30.334Z,7.38
2018-10-16T02:25:42.868Z,7.38
2018-10-16T02:25:55.393Z,7.38
2018-10-16T02:26:07.785Z,7.38
2018-10-16T02:26:20.202Z,7.38
2018-10-16T02:26:32.613Z,7.38
2018-10-16T02:26:45.007Z,7.38
2018-10-16T02:26:57.408Z,7.38
2018-10-16T02:27:09.796Z,7.38
2018-10-16T02:27:22.257Z,7.38
2018-10-16T02:27:34.641Z,7.38
2018-10-16T02:27:47.030Z,7.38
2018-10-16T02:27:59.595Z,7.38
2018-10-16T02:28:11.974Z,7.38
2018-10-16T02:28:24.398Z,7.38
2018-10-16T02:28:36.793Z,7.38
2018-10-16T02:28:49.199Z,7.38
2018-10-16T02:29:01.619Z,7.38
2018-10-16T02:29:13.999Z,7.38
2018-10-16T02:29:26.458Z,7.38
2018-10-16T02:29:38.865Z,7.38
2018-10-16T02:29:51.267Z,7.38
2018-10-16T02:30:03.696Z,7.38
2018-10-16T02:30:16.127Z,7.38
2018-10-16T02:30:28.576Z,7.38
2018-10-16T02:30:41.036Z,7.38
2018-10-16T02:30:53.457Z,7.38
2018-10-16T02:31:05.880Z,7.38
2018-10-16T02:31:18.300Z,7.38
2018-10-16T02:31:30.789Z,7.38
2018-10-16T02:31:43.226Z,7.38
2018-10-16T02:31:55.665Z,7.38
2018-10-16T02:32:08.092Z,7.38
2018-10-16T02:32:20.647Z,7.38
2018-10-16T02:32:33.122Z,7.38
2018-10-16T02:32:45.535Z,7.38
2018-10-16T02:32:57.934Z,7.38
2018-10-16T02:33:10.375Z,7.38
2018-10-16T02:33:22.791Z,7.38
2018-10-16T02:33:35.212Z,7.38
2018-10-16T02:33:47.636Z,7.38
2018-10-16T02:34:00.034Z,7.38
2018-10-16T02:34:12.439Z,7.38
2018-10-16T02:34:24.901Z,7.38
2018-10-16T02:34:37.304Z,7.38
2018-10-16T02:34:49.706Z,8.65
2018-10-16T02:35:02.137Z,8.65
2018-10-16T02:35:14.565Z,8.65
2018-10-16T02:35:27.034Z,8.65
2018-10-16T02:35:39.461Z,8.65
2018-10-16T02:35:51.887Z,8.65
2018-10-16T02:36:04.317Z,8.65
2018-10-16T02:36:16.834Z,8.65
2018-10-16T02:36:29.249Z,8.65
2018-10-16T02:36:41.683Z,8.65
2018-10-16T02:36:54.102Z,8.65
2018-10-16T02:37:06.492Z,8.65
2018-10-16T02:37:18.934Z,8.65
2018-10-16T02:37:31.379Z,8.65
2018-10-16T02:37:43.782Z,8.65
2018-10-16T02:37:56.427Z,8.65
2018-10-16T02:38:08.848Z,8.65
2018-10-16T02:38:21.267Z,8.65
2018-10-16T02:38:33.671Z,8.65
2018-10-16T02:38:46.066Z,8.65
2018-10-16T02:38:58.462Z,8.65
2018-10-16T02:39:10.884Z,8.65
2018-10-16T02:39:23.308Z,8.65
2018-10-16T02:39:35.909Z,8.65
2018-10-16T02:39:48.320Z,8.65
2018-10-16T02:40:00.891Z,8.65
2018-10-16T02:40:13.309Z,8.65
2018-10-16T02:40:25.943Z,8.65
2018-10-16T02:40:38.462Z,8.65
2018-10-16T02:40:50.862Z,8.65
2018-10-16T02:41:03.306Z,8.65
2018-10-16T02:41:15.767Z,8.65
2018-10-16T02:41:28.257Z,8.65
2018-10-16T02:41:40.684Z,8.65
2018-10-16T02:41:53.084Z,8.65
2018-10-16T02:42:05.487Z,8.65
2018-10-16T02:42:17.916Z,8.65
2018-10-16T02:42:30.316Z,8.65
2018-10-16T02:42:42.863Z,8.65
2018-10-16T02:42:55.306Z,8.65
2018-10-16T02:43:07.734Z,8.65
2018-10-16T02:43:20.145Z,8.65
2018-10-16T02:43:32.551Z,8.65
2018-10-16T02:43:45.018Z,8.65
2018-10-16T02:43:57.441Z,8.65
2018-10-16T02:44:09.834Z,8.65
2018-10-16T02:44:22.299Z,8.65
2018-10-16T02:44:34.721Z,8.65
2018-10-16T02:44:47.157Z,7.82
2018-10-16T02:44:59.634Z,7.82
2018-10-16T02:45:12.171Z,7.82
2018-10-16T02:45:24.591Z,7.82
2018-10-16T02:45:37.029Z,7.82
2018-10-16T02:45:49.450Z,7.82
2018-10-16T02:46:01.940Z,7.82
2018-10-16T02:46:14.340Z,7.82
2018-10-16T02:46:26.767Z,7.82
2018-10-16T02:46:39.202Z,7.82
2018-10-16T02:46:51.610Z,7.82
2018-10-16T02:47:04.012Z,7.82